createdAt,value
2017-07-20T00:00:05.208Z,53.6
2017-07-20T00:02:10.935Z,53.6
2017-07-20T00:04:05.623Z,53.6
2017-07-20T00:06:05.323Z,53.6
2017-07-20T00:08:12.599Z,53.6
2017-07-20T00:10:05.453Z,53.6
2017-07-20T00:12:05.146Z,53.6
2017-07-20T00:14:05.932Z,53.6
2017-07-20T00:16:05.518Z,53.5
2017-07-20T00:18:08.031Z,53.6
2017-07-20T00:20:05.792Z,53.5
2017-07-20T00:22:05.736Z,53.6
2017-07-20T00:24:05.555Z,53.6
2017-07-20T00:26:05.380Z,53.5
2017-07-20T00:28:05.432Z,53.8
2017-07-20T00:30:07.802Z,53.7
2017-07-20T00:32:05.141Z,53.6
2017-07-20T00:34:06.047Z,53.8
2017-07-20T00:36:05.780Z,53.7
2017-07-20T00:38:05.673Z,53.7
2017-07-20T00:40:05.443Z,53.7
2017-07-20T00:42:05.166Z,53.8
2017-07-20T00:44:10.939Z,53.8
2017-07-20T00:46:05.782Z,53.8
2017-07-20T00:48:05.019Z,53.8
2017-07-20T00:50:05.772Z,53.9
2017-07-20T00:52:08.853Z,54
2017-07-20T00:54:05.924Z,54
2017-07-20T00:56:05.667Z,53.9
2017-07-20T00:58:05.792Z,53.9
2017-07-20T01:00:05.558Z,53.8
2017-07-20T01:02:05.250Z,53.8
2017-07-20T01:04:06.138Z,53.8
2017-07-20T01:06:05.865Z,53.8
2017-07-20T01:08:08.121Z,53.8
2017-07-20T01:10:08.544Z,53.8
2017-07-20T01:12:05.266Z,53.9
2017-07-20T01:14:05.955Z,53.9
2017-07-20T01:16:05.375Z,53.9
2017-07-20T01:18:05.810Z,53.9
2017-07-20T01:20:05.122Z,53.9
2017-07-20T01:22:05.911Z,53.9
2017-07-20T01:24:07.737Z,54.1
2017-07-20T01:26:05.614Z,53.9
2017-07-20T01:28:06.112Z,54.1
2017-07-20T01:30:08.354Z,54
2017-07-20T01:32:05.076Z,54
2017-07-20T01:34:08.498Z,54.1
2017-07-20T01:36:10.245Z,54.1
2017-07-20T01:38:11.116Z,54.2
2017-07-20T01:40:05.986Z,54.1
2017-07-20T01:42:05.888Z,54.2
2017-07-20T01:44:07.674Z,54.2
2017-07-20T01:46:05.508Z,54.2
2017-07-20T01:48:05.494Z,54.3
2017-07-20T01:50:07.756Z,54.3
2017-07-20T01:52:05.578Z,54.3
2017-07-20T01:54:05.360Z,54.3
2017-07-20T01:56:05.101Z,54.4
2017-07-20T01:58:05.469Z,54.4
2017-07-20T02:00:05.185Z,54.4
2017-07-20T02:02:08.420Z,54.4
2017-07-20T02:04:05.298Z,54.4
2017-07-20T02:06:05.079Z,54.4
2017-07-20T02:08:05.833Z,54.4
2017-07-20T02:10:05.158Z,54.4
2017-07-20T02:12:05.912Z,54.3
2017-07-20T02:14:05.804Z,54.6
2017-07-20T02:16:05.567Z,54.8
2017-07-20T02:18:08.158Z,55.2
2017-07-20T02:20:10.938Z,55.4
2017-07-20T02:22:08.290Z,55.5
2017-07-20T02:24:07.524Z,55.6
2017-07-20T02:26:05.216Z,55.6
2017-07-20T02:28:05.483Z,55.9
2017-07-20T02:30:05.529Z,56
2017-07-20T02:32:05.252Z,55.9
2017-07-20T02:34:05.071Z,55.7
2017-07-20T02:36:05.795Z,55.3
2017-07-20T02:38:05.557Z,55.3
2017-07-20T02:40:07.828Z,55.3
2017-07-20T02:42:05.613Z,55.3
2017-07-20T02:44:05.285Z,55.3
2017-07-20T02:46:05.580Z,55.2
2017-07-20T02:48:05.811Z,55.1
2017-07-20T02:50:05.575Z,55.1
2017-07-20T02:52:05.957Z,55.1
2017-07-20T02:54:05.684Z,55.1
2017-07-20T02:56:05.399Z,55.3
2017-07-20T02:58:05.856Z,55.1
2017-07-20T03:00:05.559Z,55
2017-07-20T03:02:05.354Z,55
2017-07-20T03:04:05.412Z,55.1
2017-07-20T03:06:10.177Z,55.1
2017-07-20T03:08:05.549Z,55
2017-07-20T03:10:05.433Z,55.1
2017-07-20T03:12:05.645Z,55.1
2017-07-20T03:14:07.860Z,55.1
2017-07-20T03:16:05.272Z,55.1
2017-07-20T03:18:07.745Z,55.1
2017-07-20T03:20:05.561Z,55.1
2017-07-20T03:22:05.503Z,55.1
2017-07-20T03:24:07.825Z,55.1
2017-07-20T03:26:05.622Z,55.1
2017-07-20T03:28:05.504Z,55
2017-07-20T03:30:05.205Z,55
2017-07-20T03:32:08.496Z,55
2017-07-20T03:34:05.545Z,54.9
2017-07-20T03:36:05.785Z,55
2017-07-20T03:38:11.046Z,54.7
2017-07-20T03:40:05.880Z,54.9
2017-07-20T03:42:05.610Z,54.9
2017-07-20T03:44:05.856Z,54.9
2017-07-20T03:46:05.075Z,54.8
2017-07-20T03:48:07.839Z,54.8
2017-07-20T03:50:05.855Z,54.7
2017-07-20T03:52:10.724Z,54.8
2017-07-20T03:54:06.013Z,54.8
2017-07-20T03:56:05.828Z,54.8
2017-07-20T03:58:08.122Z,54.8
2017-07-20T04:00:07.888Z,54.7
2017-07-20T04:02:05.712Z,54.8
2017-07-20T04:04:05.610Z,54.7
2017-07-20T04:06:05.331Z,54.7
2017-07-20T04:08:05.052Z,54.7
2017-07-20T04:10:05.867Z,54.7
2017-07-20T04:12:05.113Z,54.7
2017-07-20T04:14:05.841Z,54.7
2017-07-20T04:16:05.617Z,54.7
2017-07-20T04:18:05.552Z,54.6
2017-07-20T04:20:05.307Z,54.6
2017-07-20T04:22:05.204Z,54.6
2017-07-20T04:24:10.995Z,54.4
2017-07-20T04:26:06.926Z,54.6
2017-07-20T04:28:05.815Z,54.6
2017-07-20T04:30:08.096Z,54.6
2017-07-20T04:32:08.351Z,54.6
2017-07-20T04:34:05.603Z,54.6
2017-07-20T04:36:09.942Z,54.6
2017-07-20T04:38:05.388Z,54.6
2017-07-20T04:40:07.727Z,54.5
2017-07-20T04:42:05.399Z,54.5
2017-07-20T04:44:05.082Z,54.6
2017-07-20T04:46:11.112Z,54.6
2017-07-20T04:48:05.825Z,54.6
2017-07-20T04:50:05.534Z,54.6
2017-07-20T04:52:05.774Z,54.6
2017-07-20T04:54:06.148Z,54.6
2017-07-20T04:56:13.432Z,54.5
2017-07-20T04:58:07.740Z,54.6
2017-07-20T05:00:05.496Z,54.6
2017-07-20T05:02:05.836Z,54.6
2017-07-20T05:04:05.893Z,54.6
2017-07-20T05:06:05.566Z,54.6
2017-07-20T05:08:05.247Z,54.6
2017-07-20T05:10:06.160Z,54.6
2017-07-20T05:12:10.976Z,54.6
2017-07-20T05:14:05.695Z,54.6
2017-07-20T05:16:08.052Z,54.6
2017-07-20T05:18:05.488Z,54.6
2017-07-20T05:20:05.216Z,54.6
2017-07-20T05:22:06.130Z,54.6
2017-07-20T05:24:08.408Z,54.6
2017-07-20T05:26:05.184Z,54.6
2017-07-20T05:28:06.106Z,54.6
2017-07-20T05:30:08.392Z,54.6
2017-07-20T05:32:12.696Z,54.5
2017-07-20T05:34:05.687Z,54.5
2017-07-20T05:36:05.440Z,54.6
2017-07-20T05:38:05.198Z,54.6
2017-07-20T05:40:05.612Z,54.6
2017-07-20T05:42:08.276Z,54.6
2017-07-20T05:44:05.981Z,54.6
2017-07-20T05:46:05.797Z,54.6
2017-07-20T05:48:05.471Z,54.6
2017-07-20T05:50:05.230Z,54.7
2017-07-20T05:52:06.081Z,54.6
2017-07-20T05:54:08.317Z,54.7
2017-07-20T05:56:07.544Z,54.7
2017-07-20T05:58:05.482Z,54.7
2017-07-20T06:00:08.244Z,54.7
2017-07-20T06:02:06.026Z,54.7
2017-07-20T06:04:05.828Z,54.9
2017-07-20T06:06:08.128Z,54.7
2017-07-20T06:08:05.055Z,54.9
2017-07-20T06:10:07.805Z,54.9
2017-07-20T06:12:05.472Z,54.9
2017-07-20T06:14:07.846Z,54.7
2017-07-20T06:16:10.355Z,54.7
2017-07-20T06:18:07.793Z,54.9
2017-07-20T06:20:08.127Z,55
2017-07-20T06:22:05.865Z,55
2017-07-20T06:24:05.608Z,55
2017-07-20T06:26:05.301Z,55.1
2017-07-20T06:28:08.614Z,55.2
2017-07-20T06:30:05.914Z,55.1
2017-07-20T06:32:05.679Z,55.5
2017-07-20T06:34:05.396Z,55.8
2017-07-20T06:36:05.120Z,55.9
2017-07-20T06:38:05.905Z,56.2
2017-07-20T06:40:07.824Z,56.5
2017-07-20T06:42:05.587Z,56.3
2017-07-20T06:44:05.993Z,56.7
2017-07-20T06:46:05.898Z,56.7
2017-07-20T06:48:05.618Z,56.9
2017-07-20T06:50:06.096Z,57
2017-07-20T06:52:05.871Z,57.1
2017-07-20T06:54:05.596Z,57.2
2017-07-20T06:56:07.846Z,57.2
2017-07-20T06:58:05.699Z,57.2
2017-07-20T07:00:05.490Z,57.5
2017-07-20T07:02:07.884Z,57.7
2017-07-20T07:04:08.336Z,57.7
2017-07-20T07:06:12.683Z,57.7
2017-07-20T07:08:05.974Z,57.7
2017-07-20T07:10:08.561Z,57.7
2017-07-20T07:12:05.430Z,57.7
2017-07-20T07:14:05.122Z,57.7
2017-07-20T07:16:06.016Z,57.7
2017-07-20T07:18:05.919Z,57.7
2017-07-20T07:20:05.605Z,57.7
2017-07-20T07:22:10.667Z,57.5
2017-07-20T07:24:05.445Z,57.5
2017-07-20T07:26:05.234Z,57.5
2017-07-20T07:28:05.671Z,57.5
2017-07-20T07:30:05.477Z,57.5
2017-07-20T07:32:07.723Z,57.5
2017-07-20T07:34:07.069Z,57.5
2017-07-20T07:36:10.891Z,57.5
2017-07-20T07:38:08.408Z,57.5
2017-07-20T07:40:05.165Z,57.5
2017-07-20T07:42:05.897Z,57.3
2017-07-20T07:44:05.696Z,57.1
2017-07-20T07:46:05.422Z,57.3
2017-07-20T07:48:05.143Z,57.3
2017-07-20T07:50:05.839Z,57.3
2017-07-20T07:52:05.714Z,57.1
2017-07-20T07:54:05.436Z,57.1
2017-07-20T07:56:05.167Z,57.1
2017-07-20T07:58:06.016Z,57.1
2017-07-20T08:00:05.276Z,57.1
2017-07-20T08:02:06.036Z,57.1
2017-07-20T08:04:05.789Z,57.1
2017-07-20T08:06:05.621Z,57.1
2017-07-20T08:08:05.292Z,57.1
2017-07-20T08:10:06.015Z,57.1
2017-07-20T08:12:05.781Z,57.1
2017-07-20T08:14:06.038Z,57.2
2017-07-20T08:16:05.979Z,57.4
2017-07-20T08:18:05.872Z,57.1
2017-07-20T08:20:08.157Z,57.1
2017-07-20T08:22:06.010Z,57.1
2017-07-20T08:24:08.264Z,57.1
2017-07-20T08:26:05.522Z,57.3
2017-07-20T08:28:05.469Z,57.1
2017-07-20T08:30:05.230Z,57.1
2017-07-20T08:32:08.529Z,57.3
2017-07-20T08:34:05.905Z,57.3
2017-07-20T08:36:07.667Z,57.3
2017-07-20T08:38:05.842Z,57.3
2017-07-20T08:40:05.588Z,57.2
2017-07-20T08:42:05.771Z,57.2
2017-07-20T08:44:05.469Z,57.3
2017-07-20T08:46:05.340Z,57.2
2017-07-20T08:48:05.053Z,57.1
2017-07-20T08:50:05.785Z,57.1
2017-07-20T08:52:05.695Z,57.2
2017-07-20T08:54:05.808Z,57.1
2017-07-20T08:56:05.514Z,57.1
2017-07-20T08:58:05.536Z,56.8
2017-07-20T09:00:05.264Z,56.5
2017-07-20T09:02:12.587Z,56.6
2017-07-20T09:04:05.263Z,56.5
2017-07-20T09:06:05.031Z,56.4
2017-07-20T09:08:05.705Z,56.2
2017-07-20T09:10:05.567Z,56.2
2017-07-20T09:12:05.294Z,56
2017-07-20T09:14:05.989Z,56
2017-07-20T09:16:07.923Z,55.8
2017-07-20T09:18:05.811Z,55.8
2017-07-20T09:20:08.514Z,55.8
2017-07-20T09:22:05.334Z,55.7
2017-07-20T09:24:07.586Z,55.6
2017-07-20T09:26:06.006Z,55.6
2017-07-20T09:28:05.830Z,55.6
2017-07-20T09:30:05.686Z,55.6
2017-07-20T09:32:05.516Z,55.6
2017-07-20T09:34:07.775Z,55.5
2017-07-20T09:36:05.508Z,55.5
2017-07-20T09:38:05.281Z,55.5
2017-07-20T09:40:05.108Z,55.5
2017-07-20T09:42:05.985Z,55.5
2017-07-20T09:44:07.788Z,55.3
2017-07-20T09:46:05.839Z,55.4
2017-07-20T09:48:05.527Z,55.3
2017-07-20T09:50:05.812Z,54.9
2017-07-20T09:52:05.544Z,54.8
2017-07-20T09:54:05.232Z,54.8
2017-07-20T09:56:05.897Z,54.6
2017-07-20T09:58:05.150Z,54.3
2017-07-20T10:00:05.886Z,54.4
2017-07-20T10:02:05.608Z,54.2
2017-07-20T10:04:05.691Z,54
2017-07-20T10:06:07.989Z,53.4
2017-07-20T10:08:05.721Z,53.2
2017-07-20T10:10:05.809Z,53.3
2017-07-20T10:12:07.451Z,53.5
2017-07-20T10:14:10.608Z,53.4
2017-07-20T10:16:06.380Z,52.9
2017-07-20T10:18:05.605Z,52.6
2017-07-20T10:20:05.398Z,52.6
2017-07-20T10:22:05.527Z,52.4
2017-07-20T10:24:11.028Z,52.1
2017-07-20T10:26:05.823Z,52.1
2017-07-20T10:28:05.558Z,51.9
2017-07-20T10:30:05.551Z,51.9
2017-07-20T10:32:05.226Z,51.7
2017-07-20T10:34:10.479Z,52
2017-07-20T10:36:05.144Z,52
2017-07-20T10:38:05.852Z,51.6
2017-07-20T10:40:07.745Z,51.8
2017-07-20T10:42:05.495Z,51.7
2017-07-20T10:44:05.226Z,51.8
2017-07-20T10:46:08.229Z,51.6
2017-07-20T10:48:05.953Z,51.6
2017-07-20T10:50:05.786Z,51.5
2017-07-20T10:52:05.529Z,51
2017-07-20T10:54:05.239Z,50.3
2017-07-20T10:56:05.941Z,50.6
2017-07-20T10:58:05.672Z,50.3
2017-07-20T11:00:05.353Z,50.4
2017-07-20T11:02:10.171Z,49.4
2017-07-20T11:04:08.429Z,49.6
2017-07-20T11:06:05.101Z,49.6
2017-07-20T11:08:05.811Z,49.8
2017-07-20T11:10:05.550Z,49
2017-07-20T11:12:07.808Z,49.4
2017-07-20T11:14:05.547Z,49.5
2017-07-20T11:16:05.474Z,48.9
2017-07-20T11:18:07.921Z,48.8
2017-07-20T11:20:05.633Z,48.9
2017-07-20T11:22:05.519Z,49.2
2017-07-20T11:24:05.286Z,49
2017-07-20T11:26:05.000Z,48.5
2017-07-20T11:28:05.921Z,48.3
2017-07-20T11:30:05.642Z,48.5
2017-07-20T11:32:10.407Z,48.3
2017-07-20T11:34:05.375Z,48.3
2017-07-20T11:36:07.586Z,48.3
2017-07-20T11:38:08.403Z,48.5
2017-07-20T11:40:05.272Z,48.5
2017-07-20T11:42:05.973Z,48.5
2017-07-20T11:44:05.679Z,48.7
2017-07-20T11:46:12.318Z,49
2017-07-20T11:48:05.759Z,48.9
2017-07-20T11:50:05.700Z,48.5
2017-07-20T11:52:06.067Z,48.8
2017-07-20T11:54:10.819Z,48.5
2017-07-20T11:56:05.514Z,48.5
2017-07-20T11:58:05.256Z,48.5
2017-07-20T12:00:05.997Z,48.5
2017-07-20T12:02:05.288Z,48.5
2017-07-20T12:04:06.049Z,48.5
2017-07-20T12:06:05.877Z,48.5
2017-07-20T12:08:05.167Z,48.2
2017-07-20T12:10:05.739Z,48.1
2017-07-20T12:12:05.539Z,48.5
2017-07-20T12:14:05.287Z,48.5
2017-07-20T12:16:21.488Z,48.5
2017-07-20T12:18:05.918Z,48.5
2017-07-20T12:20:05.604Z,48.5
2017-07-20T12:22:05.435Z,48.5
2017-07-20T12:24:10.203Z,48.5
2017-07-20T12:26:08.631Z,48.5
2017-07-20T12:28:08.545Z,48.5
2017-07-20T12:30:05.622Z,48.5
2017-07-20T12:32:10.828Z,48.1
2017-07-20T12:34:05.777Z,48.2
2017-07-20T12:36:05.515Z,48.5
2017-07-20T12:38:08.059Z,48.4
2017-07-20T12:40:05.950Z,48.5
2017-07-20T12:42:05.646Z,48.5
2017-07-20T12:44:05.400Z,48.5
2017-07-20T12:46:07.820Z,48.2
2017-07-20T12:48:08.083Z,48.5
2017-07-20T12:50:05.800Z,48.3
2017-07-20T12:52:05.694Z,48.5
2017-07-20T12:54:05.645Z,48.5
2017-07-20T12:56:05.382Z,48.2
2017-07-20T12:58:05.778Z,48.5
2017-07-20T13:00:05.084Z,48.5
2017-07-20T13:02:08.338Z,48.3
2017-07-20T13:04:05.371Z,48.4
2017-07-20T13:06:05.061Z,48.5
2017-07-20T13:08:05.783Z,48.5
2017-07-20T13:10:05.175Z,48.4
2017-07-20T13:12:05.909Z,48.3
2017-07-20T13:14:05.599Z,48.5
2017-07-20T13:16:06.013Z,47.8
2017-07-20T13:18:08.448Z,47.6
2017-07-20T13:20:08.077Z,48.2
2017-07-20T13:22:05.929Z,48.2
2017-07-20T13:24:05.693Z,47.7
2017-07-20T13:26:05.625Z,47.8
2017-07-20T13:28:05.637Z,48.2
2017-07-20T13:30:05.436Z,48.5
2017-07-20T13:32:05.842Z,47.3
2017-07-20T13:34:05.646Z,47.7
2017-07-20T13:36:05.365Z,47.5
2017-07-20T13:38:05.164Z,47.1
2017-07-20T13:40:13.593Z,47.3
2017-07-20T13:42:05.610Z,47.4
2017-07-20T13:44:10.415Z,47.1
2017-07-20T13:46:08.346Z,47
2017-07-20T13:48:05.115Z,47.1
2017-07-20T13:50:08.369Z,46.7
2017-07-20T13:52:07.658Z,46.6
2017-07-20T13:54:05.390Z,46.6
2017-07-20T13:56:05.117Z,47
2017-07-20T13:58:05.566Z,47.2
2017-07-20T14:00:05.288Z,46.9
2017-07-20T14:02:05.527Z,47.1
2017-07-20T14:04:05.399Z,46.4
2017-07-20T14:06:07.645Z,46.6
2017-07-20T14:08:05.349Z,46.6
2017-07-20T14:10:05.219Z,46.8
2017-07-20T14:12:05.981Z,47
2017-07-20T14:14:05.911Z,46.7
2017-07-20T14:16:05.616Z,46.9
2017-07-20T14:18:05.121Z,46.9
2017-07-20T14:20:05.828Z,46.9
2017-07-20T14:22:05.619Z,46.9
2017-07-20T14:24:05.958Z,47.3
2017-07-20T14:26:05.648Z,47.3
2017-07-20T14:28:05.926Z,47.3
2017-07-20T14:30:05.814Z,47.2
2017-07-20T14:32:05.487Z,46.9
2017-07-20T14:34:05.714Z,47
2017-07-20T14:36:05.403Z,47.3
2017-07-20T14:38:07.674Z,47
2017-07-20T14:40:05.581Z,47
2017-07-20T14:42:07.795Z,46.2
2017-07-20T14:44:05.506Z,46.3
2017-07-20T14:46:05.328Z,46.8
2017-07-20T14:48:04.992Z,47.1
2017-07-20T14:50:05.674Z,46.9
2017-07-20T14:52:05.548Z,46.8
2017-07-20T14:54:05.320Z,47.1
2017-07-20T14:56:07.623Z,46.9
2017-07-20T14:58:07.861Z,46.9
2017-07-20T15:00:05.509Z,46.9
2017-07-20T15:02:05.342Z,46.6
2017-07-20T15:04:05.031Z,46.5
2017-07-20T15:06:08.336Z,46.5
2017-07-20T15:08:05.057Z,46.5
2017-07-20T15:10:05.893Z,46.5
2017-07-20T15:12:13.185Z,46.7
2017-07-20T15:14:10.929Z,46.2
2017-07-20T15:16:06.011Z,46.4
2017-07-20T15:18:05.531Z,46.4
2017-07-20T15:20:05.250Z,46.8
2017-07-20T15:22:06.083Z,46.9
2017-07-20T15:24:05.809Z,47
2017-07-20T15:26:08.079Z,46.9
2017-07-20T15:28:05.985Z,46.9
2017-07-20T15:30:05.696Z,46.8
2017-07-20T15:32:07.914Z,46.4
2017-07-20T15:34:05.979Z,46.4
2017-07-20T15:36:05.728Z,46.7
2017-07-20T15:38:05.437Z,47
2017-07-20T15:40:05.368Z,46.7
2017-07-20T15:42:05.556Z,46.8
2017-07-20T15:44:05.792Z,46.5
2017-07-20T15:46:06.567Z,46.8
2017-07-20T15:48:05.316Z,46.5
2017-07-20T15:50:05.386Z,46.6
2017-07-20T15:52:09.078Z,46.9
2017-07-20T15:54:10.872Z,47.2
2017-07-20T15:56:05.624Z,47.3
2017-07-20T15:58:05.406Z,47
2017-07-20T16:00:05.146Z,47.1
2017-07-20T16:02:07.910Z,47.2
2017-07-20T16:04:05.869Z,47
2017-07-20T16:06:08.395Z,47.1
2017-07-20T16:08:05.310Z,47.1
2017-07-20T16:10:06.106Z,47.2
2017-07-20T16:12:05.859Z,46.8
2017-07-20T16:14:05.563Z,47.1
2017-07-20T16:16:08.043Z,47.1
2017-07-20T16:18:08.512Z,46.8
2017-07-20T16:20:05.221Z,46.8
2017-07-20T16:22:06.219Z,46.9
2017-07-20T16:24:08.553Z,46.4
2017-07-20T16:26:07.838Z,46.6
2017-07-20T16:28:05.878Z,46.7
2017-07-20T16:30:05.755Z,46.7
2017-07-20T16:32:05.635Z,46.8
2017-07-20T16:34:05.571Z,46.8
2017-07-20T16:36:05.269Z,46.7
2017-07-20T16:38:09.755Z,46.8
2017-07-20T16:40:05.602Z,46.9
2017-07-20T16:42:05.343Z,47
2017-07-20T16:44:05.635Z,46.7
2017-07-20T16:46:05.445Z,46.8
2017-07-20T16:48:07.931Z,47.1
2017-07-20T16:50:08.227Z,47.2
2017-07-20T16:52:06.192Z,47.2
2017-07-20T16:54:06.277Z,47.1
2017-07-20T16:56:05.375Z,47.2
2017-07-20T16:58:05.208Z,47.3
2017-07-20T17:00:06.908Z,47.4
2017-07-20T17:02:05.128Z,47.1
2017-07-20T17:04:06.055Z,47.3
2017-07-20T17:06:05.820Z,47.3
2017-07-20T17:08:05.847Z,47.6
2017-07-20T17:10:05.674Z,47.7
2017-07-20T17:12:05.603Z,47.8
2017-07-20T17:14:05.313Z,48
2017-07-20T17:16:05.015Z,48.2
2017-07-20T17:18:05.885Z,48.4
2017-07-20T17:20:05.587Z,48.5
2017-07-20T17:22:05.741Z,48.3
2017-07-20T17:24:05.675Z,48.3
2017-07-20T17:26:05.646Z,48.3
2017-07-20T17:28:10.772Z,48.3
2017-07-20T17:30:05.535Z,48.3
2017-07-20T17:32:05.470Z,48.3
2017-07-20T17:34:08.447Z,48.3
2017-07-20T17:36:05.381Z,48.3
2017-07-20T17:38:05.478Z,48.3
2017-07-20T17:40:05.210Z,48.3
2017-07-20T17:42:06.231Z,48.3
2017-07-20T17:44:07.968Z,48.3
2017-07-20T17:46:08.269Z,48.3
2017-07-20T17:48:05.404Z,48.3
2017-07-20T17:50:06.114Z,48.3
2017-07-20T17:52:06.109Z,48.3
2017-07-20T17:54:07.851Z,48.3
2017-07-20T17:56:05.843Z,48.3
2017-07-20T17:58:05.607Z,48.3
2017-07-20T18:00:05.352Z,48.3
2017-07-20T18:02:05.043Z,48.3
2017-07-20T18:04:05.944Z,48.3
2017-07-20T18:06:07.819Z,48.4
2017-07-20T18:08:13.148Z,48.4
2017-07-20T18:10:06.200Z,48.3
2017-07-20T18:12:05.912Z,48.4
2017-07-20T18:14:08.197Z,48.5
2017-07-20T18:16:06.058Z,48.5
2017-07-20T18:18:06.121Z,48.6
2017-07-20T18:20:05.051Z,48.5
2017-07-20T18:22:05.362Z,48.6
2017-07-20T18:24:05.337Z,48.6
2017-07-20T18:26:05.550Z,48.6
2017-07-20T18:28:08.337Z,48.7
2017-07-20T18:30:05.071Z,48.7
2017-07-20T18:32:06.565Z,48.7
2017-07-20T18:34:05.615Z,48.7
2017-07-20T18:36:05.581Z,48.7
2017-07-20T18:38:09.038Z,48.8
2017-07-20T18:40:05.968Z,48.8
2017-07-20T18:42:05.693Z,48.8
2017-07-20T18:44:05.549Z,48.8
2017-07-20T18:46:05.605Z,48.8
2017-07-20T18:48:07.586Z,48.9
2017-07-20T18:50:08.078Z,48.9
2017-07-20T18:52:05.591Z,48.9
2017-07-20T18:54:10.397Z,48.5
2017-07-20T18:56:05.200Z,48.6
2017-07-20T18:58:06.220Z,48.7
2017-07-20T19:00:05.634Z,48.5
2017-07-20T19:02:08.089Z,48.4
2017-07-20T19:04:05.849Z,48.2
2017-07-20T19:06:05.537Z,48.2
2017-07-20T19:08:05.222Z,48
2017-07-20T19:10:06.273Z,48
2017-07-20T19:12:05.996Z,48
2017-07-20T19:14:05.224Z,48
2017-07-20T19:16:06.342Z,47.8
2017-07-20T19:18:08.622Z,47.8
2017-07-20T19:20:05.360Z,47.8
2017-07-20T19:22:12.725Z,47.8
2017-07-20T19:24:05.433Z,47.8
2017-07-20T19:26:05.137Z,47.8
2017-07-20T19:28:06.021Z,47.6
2017-07-20T19:30:08.237Z,47.6
2017-07-20T19:32:06.047Z,47.6
2017-07-20T19:34:05.774Z,47.6
2017-07-20T19:36:07.993Z,47.6
2017-07-20T19:38:05.691Z,47.6
2017-07-20T19:40:05.983Z,47.6
2017-07-20T19:42:05.659Z,47.6
2017-07-20T19:44:13.325Z,47.5
2017-07-20T19:46:08.410Z,47.5
2017-07-20T19:48:05.109Z,47.5
2017-07-20T19:50:05.952Z,47.5
2017-07-20T19:52:05.560Z,47.5
2017-07-20T19:54:05.337Z,47.5
2017-07-20T19:56:05.060Z,47.5
2017-07-20T19:58:11.069Z,47.5
2017-07-20T20:00:05.380Z,47.5
2017-07-20T20:02:05.111Z,47.5
2017-07-20T20:04:05.920Z,47.5
2017-07-20T20:06:05.301Z,47.5
2017-07-20T20:08:05.229Z,47.3
2017-07-20T20:10:11.051Z,47.3
2017-07-20T20:12:05.755Z,47.3
2017-07-20T20:14:05.505Z,47.3
2017-07-20T20:16:05.262Z,47.3
2017-07-20T20:18:05.181Z,47.3
2017-07-20T20:20:06.004Z,47.3
2017-07-20T20:22:05.997Z,47.3
2017-07-20T20:24:10.784Z,47.1
2017-07-20T20:26:05.536Z,47.1
2017-07-20T20:28:08.147Z,47.3
2017-07-20T20:30:12.340Z,47.1
2017-07-20T20:32:05.818Z,47.1
2017-07-20T20:34:05.611Z,47.1
2017-07-20T20:36:05.329Z,47.1
2017-07-20T20:38:07.644Z,47.1
2017-07-20T20:40:05.593Z,47.1
2017-07-20T20:42:07.864Z,47.1
2017-07-20T20:44:05.613Z,46.9
2017-07-20T20:46:05.538Z,46.9
2017-07-20T20:48:06.086Z,46.9
2017-07-20T20:50:05.302Z,46.9
2017-07-20T20:52:06.074Z,46.9
2017-07-20T20:54:06.002Z,46.9
2017-07-20T20:56:12.846Z,46.4
2017-07-20T20:58:06.009Z,46.4
2017-07-20T21:00:05.806Z,46.4
2017-07-20T21:02:05.598Z,46.4
2017-07-20T21:04:08.018Z,46.4
2017-07-20T21:06:05.872Z,46.4
2017-07-20T21:08:05.657Z,46.5
2017-07-20T21:10:08.157Z,46.4
2017-07-20T21:12:08.251Z,46.4
2017-07-20T21:14:16.048Z,46.1
2017-07-20T21:16:06.113Z,46.1
2017-07-20T21:18:07.821Z,46.3
2017-07-20T21:20:08.304Z,46.4
2017-07-20T21:22:05.199Z,46.2
2017-07-20T21:24:06.928Z,46.1
2017-07-20T21:26:05.508Z,46.1
2017-07-20T21:28:08.574Z,46.1
2017-07-20T21:30:05.508Z,46.1
2017-07-20T21:32:05.308Z,46
2017-07-20T21:34:05.980Z,45.8
2017-07-20T21:36:05.259Z,45.8
2017-07-20T21:38:08.537Z,45.8
2017-07-20T21:40:05.400Z,45.8
2017-07-20T21:42:07.824Z,45.8
2017-07-20T21:44:05.550Z,45.8
2017-07-20T21:46:05.305Z,45.6
2017-07-20T21:48:07.602Z,45.5
2017-07-20T21:50:05.333Z,45.5
2017-07-20T21:52:05.634Z,45.6
2017-07-20T21:54:05.426Z,45.4
2017-07-20T21:56:05.368Z,45.3
2017-07-20T21:58:05.081Z,44.9
2017-07-20T22:00:05.777Z,45
2017-07-20T22:02:07.610Z,45
2017-07-20T22:04:05.499Z,44.8
2017-07-20T22:06:05.870Z,45
2017-07-20T22:08:05.670Z,45
2017-07-20T22:10:05.588Z,45
2017-07-20T22:12:05.830Z,44.8
2017-07-20T22:14:08.130Z,45
2017-07-20T22:16:05.862Z,44.8
2017-07-20T22:18:05.280Z,45
2017-07-20T22:20:05.980Z,44.8
2017-07-20T22:22:15.776Z,44.5
2017-07-20T22:24:05.488Z,44.5
2017-07-20T22:26:05.790Z,44.6
2017-07-20T22:28:10.783Z,44.4
2017-07-20T22:30:10.928Z,44.1
2017-07-20T22:32:13.253Z,44.1
2017-07-20T22:34:08.659Z,43.7
2017-07-20T22:36:05.431Z,43.7
2017-07-20T22:38:10.219Z,43.2
2017-07-20T22:40:06.037Z,43.2
2017-07-20T22:42:05.714Z,43.1
2017-07-20T22:44:08.048Z,42.9
2017-07-20T22:46:05.353Z,42.9
2017-07-20T22:48:05.086Z,42.7
2017-07-20T22:50:05.883Z,42.8
2017-07-20T22:52:05.788Z,42.8
2017-07-20T22:54:05.534Z,42.8
2017-07-20T22:56:05.754Z,42.6
2017-07-20T22:58:05.461Z,42.5
2017-07-20T23:00:10.195Z,42.1
2017-07-20T23:02:05.402Z,42.1
2017-07-20T23:04:05.427Z,41.9
2017-07-20T23:06:07.651Z,41.7
2017-07-20T23:08:05.377Z,41.7
2017-07-20T23:10:12.737Z,41.3
2017-07-20T23:12:08.006Z,41.1
2017-07-20T23:14:05.720Z,41.2
2017-07-20T23:16:05.530Z,41.2
2017-07-20T23:18:06.118Z,41.1
2017-07-20T23:20:05.322Z,41
2017-07-20T23:22:05.188Z,40.9
2017-07-20T23:24:05.945Z,40.5
2017-07-20T23:26:08.247Z,40.6
2017-07-20T23:28:06.142Z,40.6
2017-07-20T23:30:08.434Z,40.7
2017-07-20T23:32:05.132Z,40.7
2017-07-20T23:34:08.589Z,40.5
2017-07-20T23:36:05.334Z,40.3
2017-07-20T23:38:08.131Z,40.5
2017-07-20T23:40:05.570Z,40.2
2017-07-20T23:42:05.246Z,40.4
2017-07-20T23:44:11.080Z,40.1
2017-07-20T23:46:06.082Z,40.1
2017-07-20T23:48:08.383Z,40
2017-07-20T23:50:05.689Z,40
2017-07-20T23:52:05.585Z,40
2017-07-20T23:54:05.338Z,39.8
2017-07-20T23:56:07.654Z,39.5
2017-07-20T23:58:06.041Z,39.3
